Time;durP1;ratioP1;P1;durP2;ratioP2;P2;SDS_P1;SDS_P2;PMS_P1;PMS_P2;Temp;Humidity;BMP_temperature;BMP_pressure;BME280_temperature;BME280_humidity;BME280_pressure;Samples;Min_cycle;Max_cycle;Signal;HPM_P1;HPM_P2
2021/05/08 00:01:33;;;;;;;5.83;4.27;;;4.50;99.90;;;;;;5082298;28;20463;-89
2021/05/08 00:04:00;;;;;;;5.30;3.90;;;4.50;99.90;;;;;;5092869;28;20452;-92
2021/05/08 00:06:26;;;;;;;5.10;4.30;;;4.50;99.90;;;;;;5084292;28;20444;-90
2021/05/08 00:08:53;;;;;;;4.90;4.37;;;4.60;99.90;;;;;;5082599;28;20975;-89
2021/05/08 00:11:19;;;;;;;4.80;4.17;;;4.50;99.90;;;;;;5080211;28;20476;-90
2021/05/08 00:13:46;;;;;;;4.17;3.77;;;4.50;99.90;;;;;;5079365;28;20514;-91
2021/05/08 00:16:13;;;;;;;3.93;3.53;;;4.60;99.90;;;;;;5078161;28;20464;-94
2021/05/08 00:18:39;;;;;;;4.10;3.60;;;4.60;99.90;;;;;;5078657;28;20455;-91
2021/05/08 00:21:06;;;;;;;4.17;3.77;;;4.50;99.90;;;;;;5078572;28;20819;-89
2021/05/08 00:23:32;;;;;;;3.87;3.47;;;4.50;99.90;;;;;;5077696;28;20518;-93
2021/05/08 00:25:58;;;;;;;4.50;4.07;;;4.50;99.90;;;;;;5077400;28;20429;-93
2021/05/08 00:28:25;;;;;;;5.67;3.30;;;4.50;99.90;;;;;;5077311;28;20956;-90
2021/05/08 00:30:52;;;;;;;6.47;3.87;;;4.50;99.90;;;;;;5077547;28;20451;-91
2021/05/08 00:33:18;;;;;;;6.40;4.20;;;4.50;99.90;;;;;;5077687;28;20471;-93
2021/05/08 00:35:44;;;;;;;11.93;3.90;;;4.50;99.90;;;;;;5077332;28;20530;-90
2021/05/08 00:38:11;;;;;;;4.80;4.30;;;4.50;99.90;;;;;;5077376;28;20995;-91
2021/05/08 00:40:37;;;;;;;4.53;4.13;;;4.50;99.90;;;;;;5077775;28;20453;-90
2021/05/08 00:43:04;;;;;;;4.27;3.87;;;4.40;99.90;;;;;;5077071;28;20494;-89
2021/05/08 00:45:30;;;;;;;5.90;5.00;;;4.30;99.90;;;;;;5077189;28;20801;-94
2021/05/08 00:48:04;;;;;;;5.30;4.30;;;4.30;99.90;;;;;;5076735;28;20473;-92
2021/05/08 00:50:32;;;;;;;4.70;3.83;;;4.20;99.90;;;;;;5077203;28;20926;-92
2021/05/08 00:52:59;;;;;;;8.37;4.10;;;4.10;99.90;;;;;;5077186;28;20452;-91
2021/05/08 00:55:25;;;;;;;4.50;4.10;;;4.10;99.90;;;;;;5077283;28;20987;-91
2021/05/08 00:57:52;;;;;;;5.07;3.57;;;4.00;99.90;;;;;;5077215;28;20473;-90
2021/05/08 01:00:19;;;;;;;4.80;3.00;;;4.00;99.90;;;;;;5077067;28;20445;-90
2021/05/08 01:02:46;;;;;;;3.80;2.80;;;4.00;99.90;;;;;;5077766;28;20943;-89
2021/05/08 01:05:14;;;;;;;3.93;3.63;;;4.00;99.90;;;;;;5077812;28;20475;-92
2021/05/08 01:07:41;;;;;;;3.30;3.00;;;4.00;99.90;;;;;;5077043;28;20464;-90
2021/05/08 01:10:11;;;;;;;5.83;3.40;;;4.10;99.90;;;;;;5076676;28;20459;-92
2021/05/08 01:12:38;;;;;;;2.83;2.63;;;4.20;99.90;;;;;;5076804;28;20452;-91
2021/05/08 01:15:06;;;;;;;4.50;4.10;;;4.40;99.90;;;;;;5076648;28;20491;-90
2021/05/08 01:17:32;;;;;;;4.00;3.00;;;4.40;99.90;;;;;;5077107;28;20472;-92
2021/05/08 01:19:59;;;;;;;3.53;3.20;;;4.50;99.90;;;;;;5076819;28;20456;-93
2021/05/08 01:22:26;;;;;;;3.87;3.20;;;4.50;99.90;;;;;;5076668;28;20463;-93
2021/05/08 01:24:52;;;;;;;8.73;3.63;;;4.60;99.90;;;;;;5076980;28;20445;-92
2021/05/08 01:27:19;;;;;;;5.00;3.80;;;4.60;99.90;;;;;;5076564;28;20456;-90
2021/05/08 01:29:45;;;;;;;5.47;3.53;;;4.60;99.90;;;;;;5076684;28;20844;-91
2021/05/08 01:32:11;;;;;;;4.43;3.67;;;4.60;99.90;;;;;;5077627;28;20456;-91
2021/05/08 01:34:38;;;;;;;4.73;4.27;;;4.60;99.90;;;;;;5076653;28;20436;-90
2021/05/08 01:37:04;;;;;;;5.20;3.30;;;4.50;99.90;;;;;;5076344;28;20469;-89
2021/05/08 01:39:31;;;;;;;4.80;4.00;;;4.50;99.90;;;;;;5076826;28;20409;-92
2021/05/08 01:41:58;;;;;;;6.53;3.50;;;4.50;99.90;;;;;;5076254;28;20447;-92
2021/05/08 01:44:24;;;;;;;4.57;4.17;;;4.40;99.90;;;;;;5076434;28;20437;-93
2021/05/08 01:46:53;;;;;;;3.80;3.50;;;4.30;99.90;;;;;;5076170;28;20445;-92
2021/05/08 01:49:20;;;;;;;3.87;3.50;;;4.20;99.90;;;;;;5076095;28;20511;-90
2021/05/08 01:51:46;;;;;;;3.63;3.33;;;4.10;99.90;;;;;;5076073;28;20459;-91
2021/05/08 01:54:15;;;;;;;4.13;3.73;;;4.10;99.90;;;;;;5076225;28;20434;-90
2021/05/08 01:56:42;;;;;;;3.60;3.30;;;4.10;99.90;;;;;;5075558;28;20475;-91
2021/05/08 01:59:09;;;;;;;4.27;3.53;;;4.00;99.90;;;;;;5076153;28;20433;-92
2021/05/08 02:01:35;;;;;;;4.00;3.60;;;4.00;99.90;;;;;;5076464;28;20449;-89
2021/05/08 02:04:02;;;;;;;5.03;3.80;;;3.90;99.90;;;;;;5075933;28;20464;-91
2021/05/08 02:06:28;;;;;;;4.20;3.80;;;3.90;99.90;;;;;;5075933;28;20465;-93
2021/05/08 02:08:54;;;;;;;5.53;3.90;;;3.90;99.90;;;;;;5075719;28;20479;-90
2021/05/08 02:11:20;;;;;;;5.20;4.47;;;3.80;99.90;;;;;;5075692;28;20453;-92
2021/05/08 02:13:48;;;;;;;6.20;3.30;;;3.80;99.90;;;;;;5076689;28;20433;-90
2021/05/08 02:16:15;;;;;;;3.97;3.67;;;3.80;99.90;;;;;;5082735;28;20457;-90
2021/05/08 02:18:41;;;;;;;5.00;4.60;;;3.70;99.90;;;;;;5097572;28;20460;-91
2021/05/08 02:21:08;;;;;;;4.60;3.33;;;3.70;99.90;;;;;;5083078;28;20448;-90
2021/05/08 02:23:34;;;;;;;7.80;3.70;;;3.70;99.90;;;;;;5081360;28;20485;-91
2021/05/08 02:26:01;;;;;;;3.27;3.07;;;3.70;99.90;;;;;;5078555;28;20539;-91
2021/05/08 02:28:27;;;;;;;5.17;4.10;;;3.70;99.90;;;;;;5076071;28;20477;-90
2021/05/08 02:30:54;;;;;;;4.33;3.67;;;3.60;99.90;;;;;;5075805;28;20453;-91
2021/05/08 02:33:20;;;;;;;4.47;3.70;;;3.60;99.90;;;;;;5076163;28;20455;-91
2021/05/08 02:35:47;;;;;;;4.33;3.93;;;3.60;99.90;;;;;;5074947;28;20473;-90
2021/05/08 02:38:13;;;;;;;3.77;3.30;;;3.60;99.90;;;;;;5075060;28;20479;-89
2021/05/08 02:40:40;;;;;;;4.83;4.03;;;3.60;99.90;;;;;;5075319;28;20453;-90
2021/05/08 02:43:08;;;;;;;4.70;3.67;;;3.60;99.90;;;;;;5075544;28;21012;-90
2021/05/08 02:45:35;;;;;;;6.10;4.57;;;3.50;99.90;;;;;;5074962;28;20985;-92
2021/05/08 02:48:03;;;;;;;5.50;3.80;;;3.50;99.90;;;;;;5074385;28;20489;-90
2021/05/08 02:50:29;;;;;;;6.67;3.53;;;3.50;99.90;;;;;;5074851;28;20457;-90
2021/05/08 02:52:55;;;;;;;4.40;4.00;;;3.50;99.90;;;;;;5074612;28;20773;-89
2021/05/08 02:55:22;;;;;;;4.10;3.70;;;3.50;99.90;;;;;;5074397;28;20480;-91
2021/05/08 02:57:49;;;;;;;7.93;4.20;;;3.50;99.90;;;;;;5074556;28;20499;-90
2021/05/08 03:00:17;;;;;;;4.97;3.60;;;3.40;99.90;;;;;;5075091;28;20483;-91
2021/05/08 03:02:44;;;;;;;4.20;3.50;;;3.40;99.90;;;;;;5074610;28;20460;-89
2021/05/08 03:05:12;;;;;;;6.23;4.40;;;3.40;99.90;;;;;;5075115;28;20445;-89
2021/05/08 03:07:39;;;;;;;4.40;3.80;;;3.40;99.90;;;;;;5074518;28;20475;-89
2021/05/08 03:10:06;;;;;;;4.70;4.17;;;3.30;99.90;;;;;;5074418;28;20439;-88
2021/05/08 03:12:33;;;;;;;3.73;3.43;;;3.40;99.90;;;;;;5074460;28;20456;-90
2021/05/08 03:14:59;;;;;;;4.60;3.90;;;3.40;99.90;;;;;;5074474;28;20804;-90
2021/05/08 03:17:25;;;;;;;3.93;3.53;;;3.40;99.90;;;;;;5074419;28;20477;-91
2021/05/08 03:19:52;;;;;;;4.00;3.60;;;3.30;99.90;;;;;;5074869;28;20449;-90
2021/05/08 03:22:19;;;;;;;3.53;3.10;;;3.30;99.90;;;;;;5074780;28;20817;-92
2021/05/08 03:24:45;;;;;;;3.90;3.60;;;3.30;99.90;;;;;;5074062;28;20429;-89
2021/05/08 03:27:12;;;;;;;8.60;4.17;;;3.20;99.90;;;;;;5074168;28;20473;-91
2021/05/08 03:29:38;;;;;;;4.17;3.77;;;3.20;99.90;;;;;;5074199;28;20460;-90
2021/05/08 03:32:05;;;;;;;5.37;4.33;;;3.10;99.90;;;;;;5074100;28;20464;-89
2021/05/08 03:34:31;;;;;;;4.50;4.10;;;3.10;99.90;;;;;;5073874;28;20969;-90
2021/05/08 03:36:57;;;;;;;6.47;4.43;;;3.10;99.90;;;;;;5073917;28;20481;-91
2021/05/08 03:39:24;;;;;;;4.87;4.17;;;3.20;99.90;;;;;;5074154;28;20449;-92
2021/05/08 03:41:51;;;;;;;4.20;3.80;;;3.20;99.90;;;;;;5074001;28;20875;-92
2021/05/08 03:44:18;;;;;;;4.53;4.00;;;3.20;99.90;;;;;;5074431;28;20453;-88
2021/05/08 03:46:44;;;;;;;4.10;3.80;;;3.20;99.90;;;;;;5073930;28;20460;-89
2021/05/08 03:49:10;;;;;;;6.60;4.30;;;3.20;99.90;;;;;;5073949;28;20512;-89
2021/05/08 03:51:37;;;;;;;5.03;3.77;;;3.20;99.90;;;;;;5073786;28;20485;-92
2021/05/08 03:54:04;;;;;;;5.17;3.40;;;3.20;99.90;;;;;;5074117;28;20437;-91
2021/05/08 03:56:31;;;;;;;4.80;4.07;;;3.20;99.90;;;;;;5073946;28;20537;-91
2021/05/08 03:58:58;;;;;;;3.77;3.47;;;3.20;99.90;;;;;;5074070;28;20465;-93
2021/05/08 04:01:24;;;;;;;4.23;3.70;;;3.20;99.90;;;;;;5074144;28;20465;-88
2021/05/08 04:03:50;;;;;;;5.47;4.00;;;3.20;99.90;;;;;;5074018;28;20940;-90
2021/05/08 04:06:17;;;;;;;5.80;4.20;;;3.20;99.90;;;;;;5073890;28;20498;-91
2021/05/08 04:08:43;;;;;;;4.47;3.80;;;3.20;99.90;;;;;;5073646;28;20459;-93
2021/05/08 04:11:09;;;;;;;5.30;3.50;;;3.20;99.90;;;;;;5074404;28;20456;-90
2021/05/08 04:13:36;;;;;;;5.30;4.60;;;3.30;99.90;;;;;;5073803;28;20449;-89
2021/05/08 04:16:04;;;;;;;5.07;4.07;;;3.30;99.90;;;;;;5073892;28;20998;-90
2021/05/08 04:18:30;;;;;;;5.90;4.50;;;3.30;99.90;;;;;;5073663;28;20449;-92
2021/05/08 04:20:56;;;;;;;7.37;4.47;;;3.40;99.90;;;;;;5073734;28;20457;-89
2021/05/08 04:23:22;;;;;;;4.47;3.90;;;3.40;99.90;;;;;;5073698;28;20935;-92
2021/05/08 04:25:49;;;;;;;5.23;4.40;;;3.40;99.90;;;;;;5073761;28;20818;-90
2021/05/08 04:28:15;;;;;;;3.83;3.43;;;3.50;99.90;;;;;;5073579;28;20480;-93
2021/05/08 04:30:42;;;;;;;6.20;3.57;;;3.60;99.90;;;;;;5074788;28;20820;-93
2021/05/08 04:33:08;;;;;;;5.20;4.00;;;3.60;99.90;;;;;;5088171;28;20453;-90
2021/05/08 04:35:35;;;;;;;4.43;3.97;;;3.70;99.90;;;;;;5086794;28;20473;-91
2021/05/08 04:38:02;;;;;;;4.67;4.20;;;3.70;99.90;;;;;;5082407;28;20473;-90
2021/05/08 04:40:29;;;;;;;4.73;3.40;;;3.80;99.90;;;;;;5079019;28;20433;-90
2021/05/08 04:42:55;;;;;;;6.10;4.10;;;3.90;99.90;;;;;;5075701;28;20440;-92
2021/05/08 04:45:24;;;;;;;4.77;4.27;;;3.90;99.90;;;;;;5073884;28;20451;-92
2021/05/08 04:47:53;;;;;;;5.20;3.97;;;3.90;99.90;;;;;;5073811;28;20512;-93
2021/05/08 04:50:19;;;;;;;5.90;4.40;;;3.90;99.90;;;;;;5074001;28;20433;-91
2021/05/08 04:52:46;;;;;;;4.17;3.70;;;3.90;99.90;;;;;;5077244;28;20457;-91
2021/05/08 04:55:12;;;;;;;4.00;3.70;;;4.00;99.90;;;;;;5077341;28;20458;-91
2021/05/08 04:57:38;;;;;;;5.17;4.30;;;3.90;99.90;;;;;;5077044;28;20480;-91
2021/05/08 05:00:06;;;;;;;4.83;4.43;;;3.90;99.90;;;;;;5076964;28;20421;-92
2021/05/08 05:02:32;;;;;;;4.37;3.70;;;4.00;99.90;;;;;;5077025;28;20456;-92
2021/05/08 05:04:59;;;;;;;5.90;3.47;;;4.10;99.90;;;;;;5076860;28;20836;-91
2021/05/08 05:07:26;;;;;;;3.73;3.33;;;4.30;99.90;;;;;;5076847;28;20968;-90
2021/05/08 05:09:52;;;;;;;5.90;3.47;;;4.40;99.90;;;;;;5077517;28;20518;-91
2021/05/08 05:12:18;;;;;;;4.30;3.30;;;4.60;99.90;;;;;;5076858;28;20457;-90
2021/05/08 05:14:45;;;;;;;3.67;3.37;;;4.70;99.90;;;;;;5076847;28;20441;-93
2021/05/08 05:17:11;;;;;;;3.40;3.10;;;4.70;99.90;;;;;;5076502;28;20987;-92
2021/05/08 05:19:37;;;;;;;3.43;3.10;;;4.80;99.90;;;;;;5076812;28;20448;-92
2021/05/08 05:22:05;;;;;;;8.03;3.30;;;4.80;99.90;;;;;;5076736;28;20924;-93
2021/05/08 05:24:31;;;;;;;4.30;3.90;;;4.90;99.90;;;;;;5076473;28;20974;-91
2021/05/08 05:26:57;;;;;;;5.23;3.57;;;4.90;99.90;;;;;;5077349;28;20928;-92
2021/05/08 05:29:23;;;;;;;4.03;3.63;;;5.00;99.90;;;;;;5076542;28;20445;-92
2021/05/08 05:31:51;;;;;;;3.50;3.20;;;5.10;99.90;;;;;;5077365;28;20962;-91
2021/05/08 05:34:18;;;;;;;3.77;3.40;;;5.10;99.90;;;;;;5076807;28;20453;-92
2021/05/08 05:36:44;;;;;;;3.70;3.20;;;5.20;99.90;;;;;;5076287;28;20921;-91
2021/05/08 05:39:11;;;;;;;3.60;2.90;;;5.30;99.90;;;;;;5077092;28;20449;-91
2021/05/08 05:41:38;;;;;;;3.03;2.70;;;5.30;99.90;;;;;;5076601;28;20516;-92
2021/05/08 05:44:06;;;;;;;5.33;3.50;;;5.40;99.90;;;;;;5076829;28;20821;-91
2021/05/08 05:46:32;;;;;;;3.43;3.10;;;5.50;99.90;;;;;;5076769;28;20468;-92
2021/05/08 05:48:58;;;;;;;3.20;3.00;;;5.70;99.90;;;;;;5079925;28;20487;-92
2021/05/08 05:51:25;;;;;;;3.20;2.90;;;5.80;99.90;;;;;;5080433;28;20915;-92
2021/05/08 05:53:56;;;;;;;4.67;2.90;;;6.00;99.90;;;;;;5079860;28;20874;-92
2021/05/08 05:56:24;;;;;;;3.73;2.87;;;6.20;99.90;;;;;;5077108;28;20580;-92
2021/05/08 05:58:50;;;;;;;6.97;3.07;;;6.40;99.90;;;;;;5076392;28;20472;-93
2021/05/08 06:01:17;;;;;;;5.00;2.80;;;6.60;99.90;;;;;;5076193;28;20453;-93
2021/05/08 06:03:43;;;;;;;3.17;2.90;;;6.80;99.90;;;;;;5075162;28;20437;-92
2021/05/08 06:06:09;;;;;;;6.30;2.93;;;7.10;99.90;;;;;;5076080;28;20441;-92
2021/05/08 06:08:35;;;;;;;2.97;2.63;;;7.30;99.90;;;;;;5076322;28;20484;-91
2021/05/08 06:11:02;;;;;;;3.03;2.73;;;7.40;99.90;;;;;;5076975;28;20432;-90
2021/05/08 06:13:32;;;;;;;3.20;2.87;;;7.70;99.90;;;;;;5076100;28;20445;-89
2021/05/08 06:15:58;;;;;;;3.13;2.80;;;7.90;99.90;;;;;;5078727;28;20494;-90
2021/05/08 06:18:24;;;;;;;3.30;3.00;;;8.20;99.90;;;;;;5080878;28;20831;-89
2021/05/08 06:20:51;;;;;;;3.10;2.90;;;8.50;99.90;;;;;;5078229;28;20459;-91
2021/05/08 06:23:18;;;;;;;3.43;3.13;;;8.70;99.90;;;;;;5077369;28;20943;-90
2021/05/08 06:25:44;;;;;;;4.17;2.80;;;8.90;99.90;;;;;;5075991;28;20445;-90
2021/05/08 06:28:11;;;;;;;2.67;2.47;;;9.20;99.90;;;;;;5075783;28;20471;-90
2021/05/08 06:30:38;;;;;;;5.00;2.80;;;9.30;99.90;;;;;;5075941;28;20441;-90
2021/05/08 06:33:05;;;;;;;3.60;2.97;;;9.70;99.90;;;;;;5077733;28;20444;-91
2021/05/08 06:35:31;;;;;;;3.00;2.80;;;10.00;99.90;;;;;;5093505;28;20476;-90
2021/05/08 06:37:57;;;;;;;2.33;2.17;;;10.40;99.90;;;;;;5081215;28;20473;-90
2021/05/08 06:40:24;;;;;;;2.93;2.73;;;10.80;99.90;;;;;;5079810;28;20445;-91
2021/05/08 06:42:50;;;;;;;2.73;2.53;;;11.10;98.40;;;;;;5076443;28;20809;-91
2021/05/08 06:45:17;;;;;;;2.57;2.40;;;11.50;97.40;;;;;;5075675;28;20936;-89
2021/05/08 06:47:44;;;;;;;2.10;2.00;;;11.80;95.00;;;;;;5075632;28;20888;-89
2021/05/08 06:50:11;;;;;;;4.23;2.80;;;12.20;92.90;;;;;;5075396;28;20491;-88
2021/05/08 06:52:37;;;;;;;3.30;1.87;;;12.60;92.60;;;;;;5075540;28;20544;-89
2021/05/08 06:55:05;;;;;;;2.53;2.33;;;13.00;90.10;;;;;;5075221;28;20805;-88
2021/05/08 06:57:32;;;;;;;3.40;2.10;;;13.50;89.50;;;;;;5075333;28;20825;-88
2021/05/08 07:00:00;;;;;;;2.07;1.97;;;14.70;82.70;;;;;;5075257;28;20540;-87
2021/05/08 07:02:26;;;;;;;2.20;1.87;;;15.70;73.30;;;;;;5075304;28;20433;-87
2021/05/08 07:04:53;;;;;;;3.30;2.33;;;17.00;65.50;;;;;;5075266;28;20448;-87
2021/05/08 07:07:20;;;;;;;1.90;1.80;;;17.90;59.90;;;;;;5075020;28;20468;-87
2021/05/08 07:09:47;;;;;;;1.80;1.70;;;19.00;56.20;;;;;;5075116;28;20491;-87
2021/05/08 07:12:13;;;;;;;2.10;1.73;;;19.90;51.40;;;;;;5075039;28;20432;-87
2021/05/08 07:14:39;;;;;;;2.13;2.03;;;20.10;52.30;;;;;;5074962;28;20775;-87
2021/05/08 07:17:05;;;;;;;1.85;1.75;;;20.70;50.90;;;;;;5074852;28;20279;-87
2021/05/08 07:19:32;;;;;;;2.63;1.98;;;20.80;48.10;;;;;;5075085;28;20568;-87
2021/05/08 07:22:01;;;;;;;2.92;1.65;;;21.10;46.90;;;;;;5074967;28;20182;-87
2021/05/08 07:24:27;;;;;;;2.13;1.55;;;21.70;49.20;;;;;;5074791;28;20191;-87
2021/05/08 07:26:54;;;;;;;1.67;1.58;;;22.30;46.30;;;;;;5075192;28;20191;-88
2021/05/08 07:29:20;;;;;;;2.78;2.67;;;22.20;44.10;;;;;;5074935;28;20289;-88
2021/05/08 07:31:46;;;;;;;1.70;1.60;;;21.70;44.40;;;;;;5074751;28;20223;-87
2021/05/08 07:34:13;;;;;;;1.63;1.60;;;21.20;45.10;;;;;;5074770;28;20193;-87
2021/05/08 07:36:40;;;;;;;1.60;1.50;;;21.30;46.40;;;;;;5074797;28;20202;-87
2021/05/08 07:39:07;;;;;;;2.85;2.35;;;21.40;44.60;;;;;;5074592;28;20301;-88
2021/05/08 07:41:33;;;;;;;1.52;1.48;;;21.70;45.20;;;;;;5075083;28;20194;-87
2021/05/08 07:44:00;;;;;;;1.63;1.52;;;21.80;43.80;;;;;;5074785;28;20182;-87
2021/05/08 07:46:27;;;;;;;1.13;1.13;;;21.70;44.40;;;;;;5074528;28;20707;-88
2021/05/08 07:48:53;;;;;;;1.42;1.33;;;21.60;45.40;;;;;;5074200;28;20236;-87
2021/05/08 07:51:19;;;;;;;1.70;1.60;;;22.10;44.00;;;;;;5075276;28;20213;-88
2021/05/08 07:53:46;;;;;;;2.42;2.22;;;22.50;42.30;;;;;;5074515;28;20193;-88
2021/05/08 07:56:13;;;;;;;1.33;1.25;;;23.20;41.70;;;;;;5074573;28;20233;-88
2021/05/08 07:58:39;;;;;;;1.58;1.52;;;24.20;40.80;;;;;;5074384;28;20226;-84
2021/05/08 08:01:05;;;;;;;1.50;1.40;;;24.70;39.00;;;;;;5074218;28;20190;-84
2021/05/08 08:03:31;;;;;;;1.35;1.35;;;25.40;39.30;;;;;;5074386;28;20183;-84
2021/05/08 08:05:58;;;;;;;2.78;1.50;;;26.30;36.70;;;;;;5074289;28;20186;-86
2021/05/08 08:08:24;;;;;;;1.60;1.50;;;27.00;35.40;;;;;;5074100;28;20226;-85
2021/05/08 08:10:51;;;;;;;1.40;1.40;;;27.10;32.80;;;;;;5073717;28;20656;-85
2021/05/08 08:13:18;;;;;;;1.65;1.55;;;27.50;33.80;;;;;;5073741;28;20188;-85
2021/05/08 08:15:44;;;;;;;1.17;1.17;;;28.10;31.60;;;;;;5073983;28;20743;-86
2021/05/08 08:18:11;;;;;;;1.38;1.20;;;28.70;32.10;;;;;;5074140;28;20225;-89
2021/05/08 08:20:37;;;;;;;1.13;1.13;;;28.90;30.10;;;;;;5074189;28;20195;-86
2021/05/08 08:23:04;;;;;;;1.10;1.10;;;28.70;30.10;;;;;;5073884;28;20541;-85
2021/05/08 08:25:30;;;;;;;1.38;1.27;;;27.50;30.70;;;;;;5074127;28;20197;-88
2021/05/08 08:27:56;;;;;;;1.20;1.20;;;26.90;31.30;;;;;;5080727;28;20222;-89
2021/05/08 08:30:23;;;;;;;1.30;1.20;;;26.20;33.00;;;;;;5077690;28;20660;-88
2021/05/08 08:32:50;;;;;;;1.10;1.10;;;25.40;33.60;;;;;;5077553;28;20213;-88
2021/05/08 08:35:16;;;;;;;1.35;1.13;;;25.10;34.50;;;;;;5077919;28;20182;-88
2021/05/08 08:37:42;;;;;;;1.02;1.02;;;24.70;33.60;;;;;;5077896;28;20231;-89
2021/05/08 08:40:10;;;;;;;1.30;1.20;;;24.20;34.80;;;;;;5077662;28;20182;-89
2021/05/08 08:42:37;;;;;;;1.25;1.15;;;24.40;35.80;;;;;;5080795;28;20190;-88
2021/05/08 08:45:05;;;;;;;1.50;1.30;;;24.20;35.80;;;;;;5079450;28;20187;-89
2021/05/08 08:47:32;;;;;;;0.90;0.90;;;24.20;36.30;;;;;;5078036;28;20238;-88
2021/05/08 08:50:01;;;;;;;1.13;1.02;;;23.80;36.60;;;;;;5078312;28;20206;-86
2021/05/08 08:52:28;;;;;;;1.17;1.10;;;23.60;36.20;;;;;;5077969;28;20193;-85
2021/05/08 08:54:57;;;;;;;0.93;0.93;;;23.60;35.80;;;;;;5077504;28;20194;-88
2021/05/08 08:57:27;;;;;;;1.38;1.30;;;23.20;35.10;;;;;;5077371;28;20226;-86
2021/05/08 08:59:57;;;;;;;1.13;1.02;;;22.80;34.60;;;;;;5077221;28;20206;-86
2021/05/08 09:02:26;;;;;;;2.55;1.00;;;22.30;34.50;;;;;;5077311;28;20197;-86
2021/05/08 09:04:53;;;;;;;0.88;0.88;;;22.20;36.60;;;;;;5077375;28;20585;-86
2021/05/08 09:07:21;;;;;;;0.80;0.80;;;22.50;36.50;;;;;;5077233;28;20222;-87
2021/05/08 09:09:49;;;;;;;3.42;1.02;;;22.50;36.60;;;;;;5078455;28;20186;-88
2021/05/08 09:12:17;;;;;;;2.40;1.10;;;21.70;35.20;;;;;;5077077;28;20649;-86
2021/05/08 09:14:48;;;;;;;1.20;1.10;;;21.20;37.90;;;;;;5077727;28;20190;-87
2021/05/08 09:17:15;;;;;;;1.30;1.20;;;21.40;38.80;;;;;;5077530;28;20487;-86
2021/05/08 09:19:45;;;;;;;0.97;0.90;;;21.00;37.40;;;;;;5076886;28;20444;-87
2021/05/08 09:22:26;;;;;;;1.07;0.80;;;20.50;37.70;;;;;;5076742;28;20945;-87
2021/05/08 09:24:59;;;;;;;1.20;1.10;;;19.90;39.00;;;;;;5077747;28;20428;-87
2021/05/08 09:27:36;;;;;;;1.93;0.90;;;19.40;40.10;;;;;;5076962;28;20464;-87
2021/05/08 09:30:10;;;;;;;1.00;1.00;;;19.00;39.70;;;;;;5076543;28;20437;-86
2021/05/08 09:32:38;;;;;;;1.77;1.13;;;18.90;41.30;;;;;;5076652;28;20437;-87
2021/05/08 09:35:13;;;;;;;1.30;1.20;;;19.00;41.70;;;;;;5076763;28;20500;-86
2021/05/08 09:37:41;;;;;;;1.80;1.23;;;19.10;41.20;;;;;;5075298;28;20483;-87
2021/05/08 09:40:15;;;;;;;1.27;0.80;;;19.30;42.00;;;;;;5077201;28;20441;-87
2021/05/08 09:42:46;;;;;;;1.10;1.10;;;19.60;41.60;;;;;;5079942;28;20444;-89
2021/05/08 09:45:14;;;;;;;1.13;1.07;;;19.70;40.30;;;;;;5076692;28;20412;-88
2021/05/08 09:47:41;;;;;;;1.20;1.10;;;19.80;40.80;;;;;;5076253;28;20476;-88
2021/05/08 09:50:09;;;;;;;1.10;1.10;;;20.20;41.40;;;;;;5076361;28;20919;-88
2021/05/08 09:52:58;;;;;;;1.10;1.00;;;20.50;39.80;;;;;;5076637;28;20923;-90
2021/05/08 09:55:25;;;;;;;1.30;1.20;;;20.50;40.00;;;;;;5074337;28;20441;-87
2021/05/08 09:58:02;;;;;;;1.30;1.20;;;20.30;38.20;;;;;;5078420;28;20468;-89
2021/05/08 10:00:30;;;;;;;1.20;1.10;;;20.30;40.70;;;;;;5077695;28;20441;-88
2021/05/08 10:03:09;;;;;;;0.80;0.80;;;20.60;38.40;;;;;;5076370;28;20432;-88
2021/05/08 10:05:35;;;;;;;3.47;1.50;;;20.90;39.00;;;;;;5076303;28;20802;-88
2021/05/08 10:08:03;;;;;;;1.20;1.10;;;21.20;39.80;;;;;;5075952;28;21034;-88
2021/05/08 10:10:29;;;;;;;1.27;1.20;;;21.80;39.00;;;;;;5076124;28;20876;-89
2021/05/08 10:12:56;;;;;;;1.23;1.17;;;22.10;37.30;;;;;;5076185;28;20485;-88
2021/05/08 10:15:23;;;;;;;1.30;1.20;;;22.30;37.40;;;;;;5076084;28;20182;-88
2021/05/08 10:17:50;;;;;;;1.23;1.13;;;22.80;37.20;;;;;;5075617;28;20225;-88
2021/05/08 10:20:18;;;;;;;1.92;1.50;;;23.00;37.90;;;;;;5075747;28;20186;-88
2021/05/08 10:22:48;;;;;;;1.63;1.53;;;22.80;35.60;;;;;;5076093;28;20190;-89
2021/05/08 10:25:16;;;;;;;1.40;1.30;;;22.90;35.80;;;;;;5075892;28;20198;-88
2021/05/08 10:27:43;;;;;;;1.92;1.73;;;23.70;37.20;;;;;;5075887;28;20226;-89
2021/05/08 10:30:12;;;;;;;2.15;1.90;;;24.70;36.00;;;;;;5076571;28;20194;-88
2021/05/08 10:32:41;;;;;;;3.35;1.58;;;25.60;34.90;;;;;;5100111;28;20226;-89
2021/05/08 10:35:08;;;;;;;1.58;1.27;;;26.10;32.00;;;;;;5082471;28;20181;-88
2021/05/08 10:37:35;;;;;;;1.25;1.15;;;26.60;32.60;;;;;;5080536;28;20229;-89
2021/05/08 10:40:15;;;;;;;1.50;1.40;;;26.60;33.20;;;;;;5077976;28;20182;-88
2021/05/08 10:42:43;;;;;;;1.17;1.00;;;25.80;33.10;;;;;;5076742;28;20282;-87
2021/05/08 10:45:32;;;;;;;2.58;2.42;;;25.10;34.20;;;;;;5075656;28;20186;-89
2021/05/08 10:48:11;;;;;;;1.52;1.42;;;24.20;36.10;;;;;;5074259;28;20720;-90
2021/05/08 10:50:42;;;;;;;2.15;1.70;;;23.30;35.40;;;;;;5075222;28;20186;-89
2021/05/08 10:53:09;;;;;;;1.77;1.67;;;22.20;37.10;;;;;;5075361;28;20186;-88
2021/05/08 10:55:52;;;;;;;1.40;1.40;;;21.70;37.90;;;;;;5074801;28;20186;-88
2021/05/08 10:58:34;;;;;;;1.53;1.43;;;21.30;39.20;;;;;;5074941;28;20217;-88
2021/05/08 11:01:03;;;;;;;1.43;1.33;;;21.10;38.40;;;;;;5075098;28;20910;-87
2021/05/08 11:03:30;;;;;;;1.33;1.23;;;20.80;40.30;;;;;;5075097;28;20429;-88
2021/05/08 11:06:00;;;;;;;1.57;1.47;;;20.70;41.50;;;;;;5075009;28;20425;-88
2021/05/08 11:08:47;;;;;;;1.43;1.33;;;20.40;41.60;;;;;;5074930;28;20472;-89
2021/05/08 11:11:19;;;;;;;2.60;1.60;;;20.00;40.30;;;;;;5075005;28;20456;-89
2021/05/08 11:13:48;;;;;;;1.50;1.40;;;19.80;42.00;;;;;;5075061;28;20528;-87
2021/05/08 11:16:16;;;;;;;2.03;1.87;;;19.60;41.70;;;;;;5074456;28;20974;-86
2021/05/08 11:18:44;;;;;;;1.83;1.73;;;19.60;41.90;;;;;;5074764;28;20476;-85
2021/05/08 11:21:37;;;;;;;1.50;1.40;;;19.40;42.20;;;;;;5074754;28;20443;-86
2021/05/08 11:24:05;;;;;;;1.30;1.00;;;19.40;43.10;;;;;;5074479;28;20962;-85
2021/05/08 11:26:45;;;;;;;1.33;1.23;;;19.50;43.40;;;;;;5074480;28;20425;-86
2021/05/08 11:29:16;;;;;;;1.33;1.23;;;19.60;41.90;;;;;;5075372;28;20472;-87
2021/05/08 11:31:46;;;;;;;1.33;1.07;;;19.70;41.60;;;;;;5075126;28;20787;-87
2021/05/08 11:34:14;;;;;;;1.20;1.10;;;19.60;40.10;;;;;;5074837;28;20409;-87
2021/05/08 11:36:49;;;;;;;2.30;1.37;;;19.70;43.20;;;;;;5075014;28;20967;-87
2021/05/08 11:39:17;;;;;;;1.93;1.07;;;19.60;42.10;;;;;;5075020;28;20460;-87
2021/05/08 11:41:45;;;;;;;1.10;1.10;;;19.60;42.50;;;;;;5074168;28;20433;-86
2021/05/08 11:44:23;;;;;;;1.13;1.00;;;19.60;43.30;;;;;;5074396;28;20525;-87
2021/05/08 11:47:00;;;;;;;1.40;1.30;;;19.50;43.00;;;;;;5074414;28;20440;-86
2021/05/08 11:49:28;;;;;;;1.37;1.27;;;19.30;40.80;;;;;;5074408;28;20425;-87
2021/05/08 11:51:55;;;;;;;1.07;1.07;;;18.90;41.90;;;;;;5074093;28;20930;-86
2021/05/08 11:54:21;;;;;;;1.43;1.33;;;18.90;43.90;;;;;;5074355;28;20448;-87
2021/05/08 11:56:48;;;;;;;1.37;1.27;;;19.00;44.60;;;;;;5074260;28;20510;-88
2021/05/08 11:59:15;;;;;;;1.20;1.10;;;19.20;44.70;;;;;;5074298;28;20425;-87
2021/05/08 12:01:43;;;;;;;0.90;0.90;;;19.30;42.10;;;;;;5076604;28;20523;-87
2021/05/08 12:04:09;;;;;;;0.80;0.80;;;19.30;43.80;;;;;;5078270;28;20440;-88
2021/05/08 12:06:36;;;;;;;0.97;0.97;;;19.30;42.80;;;;;;5078532;28;20425;-87
2021/05/08 12:09:10;;;;;;;1.10;1.00;;;19.20;42.60;;;;;;5078464;28;20472;-87
2021/05/08 12:11:37;;;;;;;0.97;0.97;;;19.10;41.30;;;;;;5078302;28;20437;-87
2021/05/08 12:14:17;;;;;;;1.00;1.00;;;18.80;42.60;;;;;;5078399;28;20437;-84
2021/05/08 12:16:46;;;;;;;1.00;1.00;;;18.60;42.90;;;;;;5078436;28;20465;-87
2021/05/08 12:19:12;;;;;;;0.80;0.80;;;18.40;43.00;;;;;;5078412;28;20433;-86
2021/05/08 12:21:39;;;;;;;1.00;1.00;;;18.30;44.60;;;;;;5079083;28;20445;-86
2021/05/08 12:24:06;;;;;;;0.87;0.87;;;18.20;44.20;;;;;;5078951;28;20440;-87
2021/05/08 12:26:32;;;;;;;3.67;0.90;;;18.10;44.20;;;;;;5078107;28;20496;-86
2021/05/08 12:28:58;;;;;;;1.57;0.80;;;18.10;45.10;;;;;;5078331;28;20468;-85
2021/05/08 12:31:28;;;;;;;0.80;0.80;;;18.20;44.60;;;;;;5078172;28;20776;-87
2021/05/08 12:33:56;;;;;;;1.40;0.93;;;18.20;44.80;;;;;;5077841;28;20943;-88
2021/05/08 12:36:26;;;;;;;0.80;0.80;;;18.20;46.10;;;;;;5078018;28;20473;-88
2021/05/08 12:38:54;;;;;;;1.43;0.80;;;18.40;45.00;;;;;;5077951;28;20935;-87
2021/05/08 12:41:29;;;;;;;0.80;0.80;;;18.50;44.10;;;;;;5078469;28;20449;-87
2021/05/08 12:44:04;;;;;;;0.87;0.87;;;18.50;45.00;;;;;;5088771;28;20505;-86
2021/05/08 12:46:58;;;;;;;1.13;0.80;;;18.60;44.00;;;;;;5094026;28;20416;-87
2021/05/08 12:49:26;;;;;;;0.97;0.97;;;18.60;44.50;;;;;;5084004;28;20424;-87
2021/05/08 12:51:53;;;;;;;0.93;0.93;;;18.40;44.10;;;;;;5081246;28;20441;-86
2021/05/08 12:54:29;;;;;;;0.90;0.90;;;18.30;44.40;;;;;;5079131;28;20435;-87
2021/05/08 12:56:56;;;;;;;1.10;1.00;;;18.20;44.70;;;;;;5078373;28;20550;-87